Open Full Screen Window  High Contrast Mode
Wind Gusting 00 knots
06
April 23, 2014 4:38 PM EDT
Weather Information
Wind Direction
  030 °
Wind Speed
  06 kt (7 mph)
Wind Gust
  00 kt (0 mph)
Altimeter
30.05 in
Visibility
10 SM
Temperature
15° C
59° F
Dewpoint
00° C
32° F
Humidity
36%
1hr Rain Fall
00.00 in.
24hr Rain Fall
00.00 in.
Sky Condition
Clear
VFR

METAR KI69 232038Z AUTO 03006KT 10SM CLR 15/00 A3005 RMK AO1

*Background is not an actual portrayal of the airport.